sensor_id;sensor_type;location;lat;lon;timestamp;temperature;humidity
22532;DHT22;11432;46.924;7.114;2022-09-13T00:00:04;16.40;99.90
22532;DHT22;11432;46.924;7.114;2022-09-13T00:02:31;16.50;99.90
22532;DHT22;11432;46.924;7.114;2022-09-13T00:04:56;16.40;99.90
22532;DHT22;11432;46.924;7.114;2022-09-13T00:07:22;16.30;99.90
22532;DHT22;11432;46.924;7.114;2022-09-13T00:09:48;16.30;99.90
22532;DHT22;11432;46.924;7.114;2022-09-13T00:12:14;16.30;99.90
22532;DHT22;11432;46.924;7.114;2022-09-13T00:14:40;16.30;99.90
22532;DHT22;11432;46.924;7.114;2022-09-13T00:17:06;16.40;99.90
22532;DHT22;11432;46.924;7.114;2022-09-13T00:19:32;16.40;99.90
22532;DHT22;11432;46.924;7.114;2022-09-13T00:21:57;16.40;99.90
22532;DHT22;11432;46.924;7.114;2022-09-13T00:24:23;16.20;99.90
22532;DHT22;11432;46.924;7.114;2022-09-13T00:26:49;16.30;99.90
22532;DHT22;11432;46.924;7.114;2022-09-13T00:29:14;16.20;99.90
22532;DHT22;11432;46.924;7.114;2022-09-13T00:31:40;16.00;99.90
22532;DHT22;11432;46.924;7.114;2022-09-13T00:34:05;16.00;99.90
22532;DHT22;11432;46.924;7.114;2022-09-13T00:36:31;15.90;99.90
22532;DHT22;11432;46.924;7.114;2022-09-13T00:38:58;15.80;99.90
22532;DHT22;11432;46.924;7.114;2022-09-13T00:41:24;15.90;99.90
22532;DHT22;11432;46.924;7.114;2022-09-13T00:43:55;15.90;99.90
22532;DHT22;11432;46.924;7.114;2022-09-13T00:46:41;15.80;99.90
22532;DHT22;11432;46.924;7.114;2022-09-13T00:49:31;15.60;99.90
22532;DHT22;11432;46.924;7.114;2022-09-13T00:52:00;15.60;99.90
22532;DHT22;11432;46.924;7.114;2022-09-13T00:54:31;15.70;99.90
22532;DHT22;11432;46.924;7.114;2022-09-13T00:57:01;15.70;99.90
22532;DHT22;11432;46.924;7.114;2022-09-13T00:59:36;15.90;99.90
22532;DHT22;11432;46.924;7.114;2022-09-13T01:02:03;15.80;99.90
22532;DHT22;11432;46.924;7.114;2022-09-13T01:04:29;15.60;99.90
22532;DHT22;11432;46.924;7.114;2022-09-13T01:07:00;15.60;99.90
22532;DHT22;11432;46.924;7.114;2022-09-13T01:09:27;15.70;99.90
22532;DHT22;11432;46.924;7.114;2022-09-13T01:14:41;15.90;99.90
22532;DHT22;11432;46.924;7.114;2022-09-13T01:17:08;16.00;99.90
22532;DHT22;11432;46.924;7.114;2022-09-13T01:19:34;16.00;99.90
22532;DHT22;11432;46.924;7.114;2022-09-13T01:27:08;15.60;99.90
22532;DHT22;11432;46.924;7.114;2022-09-13T01:35:15;15.20;99.90
22532;DHT22;11432;46.924;7.114;2022-09-13T01:38:20;15.30;99.90
22532;DHT22;11432;46.924;7.114;2022-09-13T01:46:58;15.20;99.90
22532;DHT22;11432;46.924;7.114;2022-09-13T01:49:44;15.30;99.90
22532;DHT22;11432;46.924;7.114;2022-09-13T01:52:14;15.40;99.90
22532;DHT22;11432;46.924;7.114;2022-09-13T01:55:55;15.60;99.90
22532;DHT22;11432;46.924;7.114;2022-09-13T01:57:53;15.60;99.90
22532;DHT22;11432;46.924;7.114;2022-09-13T02:00:21;15.70;99.90
22532;DHT22;11432;46.924;7.114;2022-09-13T02:03:03;15.80;99.90
22532;DHT22;11432;46.924;7.114;2022-09-13T02:05:44;15.70;99.90
22532;DHT22;11432;46.924;7.114;2022-09-13T02:08:18;15.40;99.90
22532;DHT22;11432;46.924;7.114;2022-09-13T02:11:10;15.40;99.90
22532;DHT22;11432;46.924;7.114;2022-09-13T02:13:40;15.30;99.90
22532;DHT22;11432;46.924;7.114;2022-09-13T02:16:45;15.40;99.90
22532;DHT22;11432;46.924;7.114;2022-09-13T02:19:38;15.30;99.90
22532;DHT22;11432;46.924;7.114;2022-09-13T02:22:07;15.20;99.90
22532;DHT22;11432;46.924;7.114;2022-09-13T02:24:37;15.30;99.90
22532;DHT22;11432;46.924;7.114;2022-09-13T02:27:10;15.40;99.90
22532;DHT22;11432;46.924;7.114;2022-09-13T02:29:39;15.20;99.90
22532;DHT22;11432;46.924;7.114;2022-09-13T02:32:09;15.20;99.90
22532;DHT22;11432;46.924;7.114;2022-09-13T02:37:17;15.40;99.90
22532;DHT22;11432;46.924;7.114;2022-09-13T02:39:47;15.40;99.90
22532;DHT22;11432;46.924;7.114;2022-09-13T02:42:17;15.40;99.90
22532;DHT22;11432;46.924;7.114;2022-09-13T02:44:46;15.30;99.90
22532;DHT22;11432;46.924;7.114;2022-09-13T02:50:08;15.10;99.90
22532;DHT22;11432;46.924;7.114;2022-09-13T02:52:58;15.00;99.90
22532;DHT22;11432;46.924;7.114;2022-09-13T02:55:43;14.90;99.90
22532;DHT22;11432;46.924;7.114;2022-09-13T02:58:24;14.90;99.90
22532;DHT22;11432;46.924;7.114;2022-09-13T03:00:51;14.90;99.90
22532;DHT22;11432;46.924;7.114;2022-09-13T03:03:17;15.00;99.90
22532;DHT22;11432;46.924;7.114;2022-09-13T03:05:43;15.10;99.90
22532;DHT22;11432;46.924;7.114;2022-09-13T03:08:11;15.20;99.90
22532;DHT22;11432;46.924;7.114;2022-09-13T03:11:02;15.10;99.90
22532;DHT22;11432;46.924;7.114;2022-09-13T03:19:38;15.10;99.90
22532;DHT22;11432;46.924;7.114;2022-09-13T03:23:01;14.80;99.90
22532;DHT22;11432;46.924;7.114;2022-09-13T03:30:25;14.90;99.90
22532;DHT22;11432;46.924;7.114;2022-09-13T03:33:26;14.70;99.90
22532;DHT22;11432;46.924;7.114;2022-09-13T03:35:53;14.70;99.90
22532;DHT22;11432;46.924;7.114;2022-09-13T03:40:52;15.00;99.90
22532;DHT22;11432;46.924;7.114;2022-09-13T03:43:34;14.90;99.90
22532;DHT22;11432;46.924;7.114;2022-09-13T03:46:27;14.80;99.90
22532;DHT22;11432;46.924;7.114;2022-09-13T03:48:57;14.60;99.90
22532;DHT22;11432;46.924;7.114;2022-09-13T03:51:25;14.70;99.90
22532;DHT22;11432;46.924;7.114;2022-09-13T03:53:56;14.80;99.90
22532;DHT22;11432;46.924;7.114;2022-09-13T03:56:23;14.70;99.90
22532;DHT22;11432;46.924;7.114;2022-09-13T03:58:49;14.70;99.90
22532;DHT22;11432;46.924;7.114;2022-09-13T04:01:18;14.90;99.90
22532;DHT22;11432;46.924;7.114;2022-09-13T04:03:44;14.90;99.90
22532;DHT22;11432;46.924;7.114;2022-09-13T04:06:10;14.80;99.90
22532;DHT22;11432;46.924;7.114;2022-09-13T04:08:35;14.90;99.90
22532;DHT22;11432;46.924;7.114;2022-09-13T04:11:01;15.10;99.90
22532;DHT22;11432;46.924;7.114;2022-09-13T04:13:26;15.20;99.90
22532;DHT22;11432;46.924;7.114;2022-09-13T04:15:53;15.10;99.90
22532;DHT22;11432;46.924;7.114;2022-09-13T04:18:19;15.10;99.90
22532;DHT22;11432;46.924;7.114;2022-09-13T04:20:52;15.00;99.90
22532;DHT22;11432;46.924;7.114;2022-09-13T04:23:18;14.90;99.90
22532;DHT22;11432;46.924;7.114;2022-09-13T04:25:44;14.80;99.90
22532;DHT22;11432;46.924;7.114;2022-09-13T04:28:09;14.90;99.90
22532;DHT22;11432;46.924;7.114;2022-09-13T04:30:36;15.00;99.90
22532;DHT22;11432;46.924;7.114;2022-09-13T04:33:01;15.10;99.90
22532;DHT22;11432;46.924;7.114;2022-09-13T04:35:27;14.90;99.90
22532;DHT22;11432;46.924;7.114;2022-09-13T04:37:56;14.90;99.90
22532;DHT22;11432;46.924;7.114;2022-09-13T04:40:23;15.00;99.90
22532;DHT22;11432;46.924;7.114;2022-09-13T04:42:49;15.00;99.90
22532;DHT22;11432;46.924;7.114;2022-09-13T04:45:14;15.10;99.90
22532;DHT22;11432;46.924;7.114;2022-09-13T04:47:40;15.20;99.90
22532;DHT22;11432;46.924;7.114;2022-09-13T04:50:06;15.20;74.10
22532;DHT22;11432;46.924;7.114;2022-09-13T04:52:32;15.00;83.90
22532;DHT22;11432;46.924;7.114;2022-09-13T04:54:58;15.00;99.90
22532;DHT22;11432;46.924;7.114;2022-09-13T04:57:26;15.10;99.90
22532;DHT22;11432;46.924;7.114;2022-09-13T04:59:52;15.20;94.20
22532;DHT22;11432;46.924;7.114;2022-09-13T05:02:17;15.20;84.10
22532;DHT22;11432;46.924;7.114;2022-09-13T05:04:43;15.20;94.40
22532;DHT22;11432;46.924;7.114;2022-09-13T05:07:08;15.10;99.90
22532;DHT22;11432;46.924;7.114;2022-09-13T05:09:34;15.00;99.90
22532;DHT22;11432;46.924;7.114;2022-09-13T05:12:00;14.80;99.90
22532;DHT22;11432;46.924;7.114;2022-09-13T05:14:25;14.60;99.90
22532;DHT22;11432;46.924;7.114;2022-09-13T05:16:51;14.50;99.90
22532;DHT22;11432;46.924;7.114;2022-09-13T05:19:17;14.50;99.90
22532;DHT22;11432;46.924;7.114;2022-09-13T05:21:42;14.50;99.90
22532;DHT22;11432;46.924;7.114;2022-09-13T05:24:08;14.40;99.90
22532;DHT22;11432;46.924;7.114;2022-09-13T05:26:34;14.50;99.90
22532;DHT22;11432;46.924;7.114;2022-09-13T05:29:00;14.70;99.90
22532;DHT22;11432;46.924;7.114;2022-09-13T05:31:32;14.70;99.90
22532;DHT22;11432;46.924;7.114;2022-09-13T05:34:00;14.70;99.90
22532;DHT22;11432;46.924;7.114;2022-09-13T05:36:27;14.70;99.90
22532;DHT22;11432;46.924;7.114;2022-09-13T05:38:53;14.80;99.90
22532;DHT22;11432;46.924;7.114;2022-09-13T05:41:19;14.70;99.90
22532;DHT22;11432;46.924;7.114;2022-09-13T05:43:45;14.70;99.90
22532;DHT22;11432;46.924;7.114;2022-09-13T05:46:13;14.90;99.90
22532;DHT22;11432;46.924;7.114;2022-09-13T05:48:40;15.00;99.90
22532;DHT22;11432;46.924;7.114;2022-09-13T05:51:14;15.00;99.90
22532;DHT22;11432;46.924;7.114;2022-09-13T05:53:41;15.00;99.90
22532;DHT22;11432;46.924;7.114;2022-09-13T05:56:09;15.00;62.40
22532;DHT22;11432;46.924;7.114;2022-09-13T05:58:39;15.10;54.00
22532;DHT22;11432;46.924;7.114;2022-09-13T06:01:06;15.10;47.10
22532;DHT22;11432;46.924;7.114;2022-09-13T06:03:32;15.20;19.10
22532;DHT22;11432;46.924;7.114;2022-09-13T06:05:58;15.30;7.50
22532;DHT22;11432;46.924;7.114;2022-09-13T06:08:25;15.50;31.90
22532;DHT22;11432;46.924;7.114;2022-09-13T06:13:27;15.80;1.00
22532;DHT22;11432;46.924;7.114;2022-09-13T06:15:54;15.90;1.00
22532;DHT22;11432;46.924;7.114;2022-09-13T06:18:20;15.90;1.00
22532;DHT22;11432;46.924;7.114;2022-09-13T06:20:47;15.90;1.00
22532;DHT22;11432;46.924;7.114;2022-09-13T06:23:13;16.00;1.00
22532;DHT22;11432;46.924;7.114;2022-09-13T06:25:39;16.20;1.00
22532;DHT22;11432;46.924;7.114;2022-09-13T06:28:05;16.20;1.00
22532;DHT22;11432;46.924;7.114;2022-09-13T06:30:30;16.20;1.00
22532;DHT22;11432;46.924;7.114;2022-09-13T06:32:56;16.60;1.00
22532;DHT22;11432;46.924;7.114;2022-09-13T06:35:22;16.80;1.00
22532;DHT22;11432;46.924;7.114;2022-09-13T06:37:48;17.20;1.00
22532;DHT22;11432;46.924;7.114;2022-09-13T06:40:13;17.40;1.00
22532;DHT22;11432;46.924;7.114;2022-09-13T06:42:39;17.60;1.00
22532;DHT22;11432;46.924;7.114;2022-09-13T06:45:05;17.70;1.00
22532;DHT22;11432;46.924;7.114;2022-09-13T06:47:31;17.70;1.00
22532;DHT22;11432;46.924;7.114;2022-09-13T06:49:57;17.60;1.00
22532;DHT22;11432;46.924;7.114;2022-09-13T06:52:23;17.30;1.00
22532;DHT22;11432;46.924;7.114;2022-09-13T06:54:49;17.10;1.00
22532;DHT22;11432;46.924;7.114;2022-09-13T06:57:14;16.90;1.00
22532;DHT22;11432;46.924;7.114;2022-09-13T06:59:41;16.70;1.00
22532;DHT22;11432;46.924;7.114;2022-09-13T07:02:08;16.60;1.00
22532;DHT22;11432;46.924;7.114;2022-09-13T07:04:34;16.60;1.00
22532;DHT22;11432;46.924;7.114;2022-09-13T07:07:00;16.50;1.00
22532;DHT22;11432;46.924;7.114;2022-09-13T07:09:25;16.50;1.00
22532;DHT22;11432;46.924;7.114;2022-09-13T07:11:54;16.50;1.00
22532;DHT22;11432;46.924;7.114;2022-09-13T07:14:21;16.50;1.00
22532;DHT22;11432;46.924;7.114;2022-09-13T07:16:48;16.50;1.00
22532;DHT22;11432;46.924;7.114;2022-09-13T07:19:16;16.60;1.00
22532;DHT22;11432;46.924;7.114;2022-09-13T07:21:42;16.70;1.00
22532;DHT22;11432;46.924;7.114;2022-09-13T07:24:08;16.80;1.00
22532;DHT22;11432;46.924;7.114;2022-09-13T07:26:35;16.90;1.00
22532;DHT22;11432;46.924;7.114;2022-09-13T07:29:03;17.10;1.00
22532;DHT22;11432;46.924;7.114;2022-09-13T07:31:34;17.20;1.00
22532;DHT22;11432;46.924;7.114;2022-09-13T07:34:06;17.40;1.00
22532;DHT22;11432;46.924;7.114;2022-09-13T07:36:33;17.60;1.00
22532;DHT22;11432;46.924;7.114;2022-09-13T07:38:59;17.70;1.00
22532;DHT22;11432;46.924;7.114;2022-09-13T07:41:27;17.80;1.00
22532;DHT22;11432;46.924;7.114;2022-09-13T07:43:54;17.90;1.00
22532;DHT22;11432;46.924;7.114;2022-09-13T07:46:24;18.00;1.00
22532;DHT22;11432;46.924;7.114;2022-09-13T07:48:55;18.10;1.00
22532;DHT22;11432;46.924;7.114;2022-09-13T07:51:23;18.20;1.00
22532;DHT22;11432;46.924;7.114;2022-09-13T07:53:50;18.10;1.00
22532;DHT22;11432;46.924;7.114;2022-09-13T07:56:19;17.90;1.00
22532;DHT22;11432;46.924;7.114;2022-09-13T07:58:46;17.90;1.00
22532;DHT22;11432;46.924;7.114;2022-09-13T08:01:20;18.00;1.00
22532;DHT22;11432;46.924;7.114;2022-09-13T08:03:57;18.10;1.00
22532;DHT22;11432;46.924;7.114;2022-09-13T08:06:25;18.10;1.00
22532;DHT22;11432;46.924;7.114;2022-09-13T08:08:51;17.90;1.00
22532;DHT22;11432;46.924;7.114;2022-09-13T08:11:18;18.00;1.00
22532;DHT22;11432;46.924;7.114;2022-09-13T08:13:49;18.10;1.00
22532;DHT22;11432;46.924;7.114;2022-09-13T08:16:17;18.30;1.00
22532;DHT22;11432;46.924;7.114;2022-09-13T08:18:48;18.40;1.00
22532;DHT22;11432;46.924;7.114;2022-09-13T08:21:14;18.50;1.00
22532;DHT22;11432;46.924;7.114;2022-09-13T08:23:40;18.60;1.00
22532;DHT22;11432;46.924;7.114;2022-09-13T08:26:06;18.70;1.00
22532;DHT22;11432;46.924;7.114;2022-09-13T08:28:34;18.90;1.00
22532;DHT22;11432;46.924;7.114;2022-09-13T08:31:08;19.10;1.00
22532;DHT22;11432;46.924;7.114;2022-09-13T08:33:34;19.30;1.00
22532;DHT22;11432;46.924;7.114;2022-09-13T08:36:01;19.40;1.00
22532;DHT22;11432;46.924;7.114;2022-09-13T08:38:27;19.30;1.00
22532;DHT22;11432;46.924;7.114;2022-09-13T08:41:16;19.00;1.00
22532;DHT22;11432;46.924;7.114;2022-09-13T08:46:39;19.00;1.00
22532;DHT22;11432;46.924;7.114;2022-09-13T08:49:10;19.10;1.00
22532;DHT22;11432;46.924;7.114;2022-09-13T08:51:41;19.30;1.00
22532;DHT22;11432;46.924;7.114;2022-09-13T08:54:13;19.40;1.00
22532;DHT22;11432;46.924;7.114;2022-09-13T08:59:31;19.60;1.00
22532;DHT22;11432;46.924;7.114;2022-09-13T09:07:14;20.10;1.00
22532;DHT22;11432;46.924;7.114;2022-09-13T09:09:56;20.20;1.00
22532;DHT22;11432;46.924;7.114;2022-09-13T09:15:00;20.30;1.00
22532;DHT22;11432;46.924;7.114;2022-09-13T09:20:25;20.50;1.00
22532;DHT22;11432;46.924;7.114;2022-09-13T09:22:52;20.70;1.00
22532;DHT22;11432;46.924;7.114;2022-09-13T09:25:22;20.80;1.00
22532;DHT22;11432;46.924;7.114;2022-09-13T09:27:49;20.90;1.00
22532;DHT22;11432;46.924;7.114;2022-09-13T09:30:15;20.80;1.00
22532;DHT22;11432;46.924;7.114;2022-09-13T09:33:08;20.60;1.00
22532;DHT22;11432;46.924;7.114;2022-09-13T09:40:44;21.30;1.00
22532;DHT22;11432;46.924;7.114;2022-09-13T09:43:19;21.60;1.00
22532;DHT22;11432;46.924;7.114;2022-09-13T09:45:46;21.70;1.00
22532;DHT22;11432;46.924;7.114;2022-09-13T09:48:15;21.90;1.00
22532;DHT22;11432;46.924;7.114;2022-09-13T09:50:48;22.10;1.00
22532;DHT22;11432;46.924;7.114;2022-09-13T09:53:21;22.20;1.00
22532;DHT22;11432;46.924;7.114;2022-09-13T09:56:00;22.40;1.00
22532;DHT22;11432;46.924;7.114;2022-09-13T09:58:42;22.50;1.00
22532;DHT22;11432;46.924;7.114;2022-09-13T10:06:40;22.50;1.00
22532;DHT22;11432;46.924;7.114;2022-09-13T10:09:17;22.40;1.00
22532;DHT22;11432;46.924;7.114;2022-09-13T10:11:51;22.40;1.00
22532;DHT22;11432;46.924;7.114;2022-09-13T10:14:30;22.50;1.00
22532;DHT22;11432;46.924;7.114;2022-09-13T10:17:22;22.60;1.00
22532;DHT22;11432;46.924;7.114;2022-09-13T10:19:54;22.70;1.00
22532;DHT22;11432;46.924;7.114;2022-09-13T10:22:23;22.70;1.00
22532;DHT22;11432;46.924;7.114;2022-09-13T10:24:49;22.60;1.00
22532;DHT22;11432;46.924;7.114;2022-09-13T10:27:25;22.60;1.00
22532;DHT22;11432;46.924;7.114;2022-09-13T10:29:56;22.70;1.00
22532;DHT22;11432;46.924;7.114;2022-09-13T10:32:24;22.70;1.00
22532;DHT22;11432;46.924;7.114;2022-09-13T10:34:50;22.80;1.00
22532;DHT22;11432;46.924;7.114;2022-09-13T10:37:28;22.90;1.00
22532;DHT22;11432;46.924;7.114;2022-09-13T10:40:18;23.10;1.00
22532;DHT22;11432;46.924;7.114;2022-09-13T10:42:56;23.60;1.00
22532;DHT22;11432;46.924;7.114;2022-09-13T10:45:25;23.90;1.00
22532;DHT22;11432;46.924;7.114;2022-09-13T10:47:54;24.00;1.00
22532;DHT22;11432;46.924;7.114;2022-09-13T10:50:26;24.00;1.00
22532;DHT22;11432;46.924;7.114;2022-09-13T10:52:54;24.00;1.00
22532;DHT22;11432;46.924;7.114;2022-09-13T11:09:09;24.90;1.00
22532;DHT22;11432;46.924;7.114;2022-09-13T11:34:06;26.40;1.00
22532;DHT22;11432;46.924;7.114;2022-09-13T11:40:21;26.60;1.00
22532;DHT22;11432;46.924;7.114;2022-09-13T11:45:25;26.10;1.00
22532;DHT22;11432;46.924;7.114;2022-09-13T11:48:29;25.80;1.00
22532;DHT22;11432;46.924;7.114;2022-09-13T11:51:11;25.40;1.00
22532;DHT22;11432;46.924;7.114;2022-09-13T11:54:01;25.30;1.00
22532;DHT22;11432;46.924;7.114;2022-09-13T11:56:53;25.10;1.00
22532;DHT22;11432;46.924;7.114;2022-09-13T11:59:46;24.90;1.00
22532;DHT22;11432;46.924;7.114;2022-09-13T12:05:06;25.40;1.00
22532;DHT22;11432;46.924;7.114;2022-09-13T12:07:38;25.70;1.00
22532;DHT22;11432;46.924;7.114;2022-09-13T12:12:55;27.70;1.00
22532;DHT22;11432;46.924;7.114;2022-09-13T12:20:36;27.70;1.00
22532;DHT22;11432;46.924;7.114;2022-09-13T12:23:06;27.60;1.00
22532;DHT22;11432;46.924;7.114;2022-09-13T12:25:59;28.30;1.00
22532;DHT22;11432;46.924;7.114;2022-09-13T12:28:56;28.10;1.00
22532;DHT22;11432;46.924;7.114;2022-09-13T12:31:26;29.00;1.00
22532;DHT22;11432;46.924;7.114;2022-09-13T12:33:52;28.50;1.00
22532;DHT22;11432;46.924;7.114;2022-09-13T12:48:05;26.10;1.00
22532;DHT22;11432;46.924;7.114;2022-09-13T12:50:44;25.80;1.00
22532;DHT22;11432;46.924;7.114;2022-09-13T12:58:47;27.60;1.00
22532;DHT22;11432;46.924;7.114;2022-09-13T13:01:20;28.40;1.00
22532;DHT22;11432;46.924;7.114;2022-09-13T13:04:03;28.10;1.00
22532;DHT22;11432;46.924;7.114;2022-09-13T13:06:49;27.30;1.00
22532;DHT22;11432;46.924;7.114;2022-09-13T13:09:41;26.90;1.00
22532;DHT22;11432;46.924;7.114;2022-09-13T13:12:31;26.20;1.00
22532;DHT22;11432;46.924;7.114;2022-09-13T13:15:00;25.60;1.00
22532;DHT22;11432;46.924;7.114;2022-09-13T13:23:18;24.90;99.90
22532;DHT22;11432;46.924;7.114;2022-09-13T13:39:09;24.90;99.90
22532;DHT22;11432;46.924;7.114;2022-09-13T13:41:41;24.70;99.90
22532;DHT22;11432;46.924;7.114;2022-09-13T13:59:46;24.40;1.00
22532;DHT22;11432;46.924;7.114;2022-09-13T14:02:13;24.80;1.00
22532;DHT22;11432;46.924;7.114;2022-09-13T14:05:06;26.40;99.90
22532;DHT22;11432;46.924;7.114;2022-09-13T14:10:33;27.30;99.90
22532;DHT22;11432;46.924;7.114;2022-09-13T14:18:58;25.90;1.00
22532;DHT22;11432;46.924;7.114;2022-09-13T14:21:28;25.60;99.90
22532;DHT22;11432;46.924;7.114;2022-09-13T14:24:23;25.80;99.90
22532;DHT22;11432;46.924;7.114;2022-09-13T14:26:58;26.40;99.90
22532;DHT22;11432;46.924;7.114;2022-09-13T14:29:25;26.70;99.90
22532;DHT22;11432;46.924;7.114;2022-09-13T14:31:54;27.10;99.90
22532;DHT22;11432;46.924;7.114;2022-09-13T14:34:35;27.10;99.90
22532;DHT22;11432;46.924;7.114;2022-09-13T14:37:06;27.90;99.90
22532;DHT22;11432;46.924;7.114;2022-09-13T14:40:05;27.00;99.90
22532;DHT22;11432;46.924;7.114;2022-09-13T14:42:40;26.90;99.90
22532;DHT22;11432;46.924;7.114;2022-09-13T14:45:18;27.10;99.90
22532;DHT22;11432;46.924;7.114;2022-09-13T14:48:11;27.70;99.90
22532;DHT22;11432;46.924;7.114;2022-09-13T14:50:46;29.10;99.90
22532;DHT22;11432;46.924;7.114;2022-09-13T14:53:16;29.40;99.90
22532;DHT22;11432;46.924;7.114;2022-09-13T14:55:57;29.00;99.90
22532;DHT22;11432;46.924;7.114;2022-09-13T14:58:45;28.40;99.90
22532;DHT22;11432;46.924;7.114;2022-09-13T15:01:15;27.30;99.90
22532;DHT22;11432;46.924;7.114;2022-09-13T15:03:43;26.10;99.90
22532;DHT22;11432;46.924;7.114;2022-09-13T15:06:30;25.50;1.00
22532;DHT22;11432;46.924;7.114;2022-09-13T15:11:36;24.80;99.90
22532;DHT22;11432;46.924;7.114;2022-09-13T15:14:29;24.60;99.90
22532;DHT22;11432;46.924;7.114;2022-09-13T15:17:09;24.40;99.90
22532;DHT22;11432;46.924;7.114;2022-09-13T15:22:24;24.30;99.90
22532;DHT22;11432;46.924;7.114;2022-09-13T15:24:56;24.30;1.00
22532;DHT22;11432;46.924;7.114;2022-09-13T15:27:45;24.40;1.00
22532;DHT22;11432;46.924;7.114;2022-09-13T15:30:30;24.40;1.00
22532;DHT22;11432;46.924;7.114;2022-09-13T15:33:16;24.50;1.00
22532;DHT22;11432;46.924;7.114;2022-09-13T15:35:45;24.70;99.90
22532;DHT22;11432;46.924;7.114;2022-09-13T15:38:22;25.00;99.90
22532;DHT22;11432;46.924;7.114;2022-09-13T15:41:21;25.10;99.90
22532;DHT22;11432;46.924;7.114;2022-09-13T15:43:49;25.40;99.90
22532;DHT22;11432;46.924;7.114;2022-09-13T15:46:15;25.60;99.90
22532;DHT22;11432;46.924;7.114;2022-09-13T15:48:55;25.70;99.90
22532;DHT22;11432;46.924;7.114;2022-09-13T15:51:21;25.80;99.90
22532;DHT22;11432;46.924;7.114;2022-09-13T15:53:48;26.10;99.90
22532;DHT22;11432;46.924;7.114;2022-09-13T15:56:19;26.40;99.90
22532;DHT22;11432;46.924;7.114;2022-09-13T15:58:46;26.30;99.90
22532;DHT22;11432;46.924;7.114;2022-09-13T16:01:12;26.10;99.90
22532;DHT22;11432;46.924;7.114;2022-09-13T16:03:38;26.00;1.00
22532;DHT22;11432;46.924;7.114;2022-09-13T16:06:04;25.90;99.90
22532;DHT22;11432;46.924;7.114;2022-09-13T16:08:31;25.70;99.90
22532;DHT22;11432;46.924;7.114;2022-09-13T16:10:57;25.40;99.90
22532;DHT22;11432;46.924;7.114;2022-09-13T16:13:23;25.10;99.90
22532;DHT22;11432;46.924;7.114;2022-09-13T16:15:48;24.90;99.90
22532;DHT22;11432;46.924;7.114;2022-09-13T16:18:15;24.60;99.90
22532;DHT22;11432;46.924;7.114;2022-09-13T16:20:42;24.40;1.00
22532;DHT22;11432;46.924;7.114;2022-09-13T16:23:07;24.30;1.00
22532;DHT22;11432;46.924;7.114;2022-09-13T16:25:33;24.00;1.00
22532;DHT22;11432;46.924;7.114;2022-09-13T16:28:01;24.00;1.00
22532;DHT22;11432;46.924;7.114;2022-09-13T16:30:26;23.90;1.00
22532;DHT22;11432;46.924;7.114;2022-09-13T16:32:55;23.90;1.00
22532;DHT22;11432;46.924;7.114;2022-09-13T16:35:21;23.80;1.00
22532;DHT22;11432;46.924;7.114;2022-09-13T16:37:46;23.80;1.00
22532;DHT22;11432;46.924;7.114;2022-09-13T16:40:16;23.80;1.00
22532;DHT22;11432;46.924;7.114;2022-09-13T16:42:42;23.80;1.00
22532;DHT22;11432;46.924;7.114;2022-09-13T16:45:09;23.90;1.00
22532;DHT22;11432;46.924;7.114;2022-09-13T16:47:35;23.90;1.00
22532;DHT22;11432;46.924;7.114;2022-09-13T16:50:02;24.00;1.00
22532;DHT22;11432;46.924;7.114;2022-09-13T16:52:28;24.00;1.00
22532;DHT22;11432;46.924;7.114;2022-09-13T16:54:53;24.10;1.00
22532;DHT22;11432;46.924;7.114;2022-09-13T16:57:20;24.10;1.00
22532;DHT22;11432;46.924;7.114;2022-09-13T16:59:46;24.00;1.00
22532;DHT22;11432;46.924;7.114;2022-09-13T17:02:12;24.00;1.00
22532;DHT22;11432;46.924;7.114;2022-09-13T17:04:38;23.90;1.00
22532;DHT22;11432;46.924;7.114;2022-09-13T17:07:04;23.90;1.00
22532;DHT22;11432;46.924;7.114;2022-09-13T17:09:32;23.80;1.00
22532;DHT22;11432;46.924;7.114;2022-09-13T17:11:58;23.70;1.00
22532;DHT22;11432;46.924;7.114;2022-09-13T17:14:24;23.50;1.00
22532;DHT22;11432;46.924;7.114;2022-09-13T17:16:52;23.50;1.00
22532;DHT22;11432;46.924;7.114;2022-09-13T17:19:27;23.40;1.00
22532;DHT22;11432;46.924;7.114;2022-09-13T17:21:58;23.30;1.00
22532;DHT22;11432;46.924;7.114;2022-09-13T17:24:25;23.20;1.00
22532;DHT22;11432;46.924;7.114;2022-09-13T17:26:51;23.10;1.00
22532;DHT22;11432;46.924;7.114;2022-09-13T17:29:17;23.10;1.00
22532;DHT22;11432;46.924;7.114;2022-09-13T17:31:43;23.00;1.00
22532;DHT22;11432;46.924;7.114;2022-09-13T17:34:10;22.90;1.00
22532;DHT22;11432;46.924;7.114;2022-09-13T17:36:37;22.90;1.00
22532;DHT22;11432;46.924;7.114;2022-09-13T17:39:04;22.90;1.00
22532;DHT22;11432;46.924;7.114;2022-09-13T17:41:30;22.80;1.00
22532;DHT22;11432;46.924;7.114;2022-09-13T17:43:55;22.80;1.00
22532;DHT22;11432;46.924;7.114;2022-09-13T17:46:24;22.80;1.00
22532;DHT22;11432;46.924;7.114;2022-09-13T17:48:51;22.70;1.00
22532;DHT22;11432;46.924;7.114;2022-09-13T17:51:20;22.70;1.00
22532;DHT22;11432;46.924;7.114;2022-09-13T17:53:52;22.60;1.00
22532;DHT22;11432;46.924;7.114;2022-09-13T17:56:39;22.50;1.00
22532;DHT22;11432;46.924;7.114;2022-09-13T17:59:11;22.50;1.00
22532;DHT22;11432;46.924;7.114;2022-09-13T18:01:39;22.50;1.00
22532;DHT22;11432;46.924;7.114;2022-09-13T18:04:05;22.50;1.00
22532;DHT22;11432;46.924;7.114;2022-09-13T18:06:32;22.40;1.00
22532;DHT22;11432;46.924;7.114;2022-09-13T18:08:58;22.40;1.00
22532;DHT22;11432;46.924;7.114;2022-09-13T18:11:23;22.30;1.00
22532;DHT22;11432;46.924;7.114;2022-09-13T18:13:50;22.30;1.00
22532;DHT22;11432;46.924;7.114;2022-09-13T18:16:18;22.30;1.00
22532;DHT22;11432;46.924;7.114;2022-09-13T18:18:45;22.20;1.00
22532;DHT22;11432;46.924;7.114;2022-09-13T18:21:12;22.10;1.00
22532;DHT22;11432;46.924;7.114;2022-09-13T18:23:44;22.10;1.00
22532;DHT22;11432;46.924;7.114;2022-09-13T18:26:11;22.00;1.00
22532;DHT22;11432;46.924;7.114;2022-09-13T18:28:38;21.90;1.00
22532;DHT22;11432;46.924;7.114;2022-09-13T18:31:05;22.00;1.00
22532;DHT22;11432;46.924;7.114;2022-09-13T18:33:32;21.90;1.00
22532;DHT22;11432;46.924;7.114;2022-09-13T18:36:06;21.90;1.00
22532;DHT22;11432;46.924;7.114;2022-09-13T18:38:34;21.90;1.00
22532;DHT22;11432;46.924;7.114;2022-09-13T18:41:29;21.80;1.00
22532;DHT22;11432;46.924;7.114;2022-09-13T18:43:55;21.80;1.00
22532;DHT22;11432;46.924;7.114;2022-09-13T18:46:23;21.80;1.00
22532;DHT22;11432;46.924;7.114;2022-09-13T18:48:51;21.80;1.00
22532;DHT22;11432;46.924;7.114;2022-09-13T18:51:26;21.70;1.00
22532;DHT22;11432;46.924;7.114;2022-09-13T18:53:52;21.70;1.00
22532;DHT22;11432;46.924;7.114;2022-09-13T18:56:20;21.70;1.00
22532;DHT22;11432;46.924;7.114;2022-09-13T18:58:47;21.70;1.00
22532;DHT22;11432;46.924;7.114;2022-09-13T19:01:24;21.70;1.00
22532;DHT22;11432;46.924;7.114;2022-09-13T19:03:55;21.70;1.00
22532;DHT22;11432;46.924;7.114;2022-09-13T19:06:32;21.70;1.00
22532;DHT22;11432;46.924;7.114;2022-09-13T19:08:59;21.70;1.00
22532;DHT22;11432;46.924;7.114;2022-09-13T19:11:27;21.70;1.00